sensor_id;sensor_type;location;lat;lon;timestamp;temperature;humidity
38480;DHT22;62333;51.980;5.934;2022-12-29T00:02:12;11.80;96.20
38480;DHT22;62333;51.980;5.934;2022-12-29T00:04:37;11.80;96.20
38480;DHT22;62333;51.980;5.934;2022-12-29T00:07:03;11.80;96.10
38480;DHT22;62333;51.980;5.934;2022-12-29T00:09:33;11.80;96.10
38480;DHT22;62333;51.980;5.934;2022-12-29T00:11:59;11.80;96.10
38480;DHT22;62333;51.980;5.934;2022-12-29T00:14:25;11.80;96.00
38480;DHT22;62333;51.980;5.934;2022-12-29T00:17:09;11.80;96.00
38480;DHT22;62333;51.980;5.934;2022-12-29T00:19:35;11.80;96.00
38480;DHT22;62333;51.980;5.934;2022-12-29T00:22:19;11.80;95.90
38480;DHT22;62333;51.980;5.934;2022-12-29T00:25:04;11.80;95.90
38480;DHT22;62333;51.980;5.934;2022-12-29T00:27:48;11.80;95.90
38480;DHT22;62333;51.980;5.934;2022-12-29T00:30:33;11.80;95.90
38480;DHT22;62333;51.980;5.934;2022-12-29T00:33:19;11.80;95.90
38480;DHT22;62333;51.980;5.934;2022-12-29T00:36:08;11.80;95.90
38480;DHT22;62333;51.980;5.934;2022-12-29T00:38:38;11.80;95.90
38480;DHT22;62333;51.980;5.934;2022-12-29T00:41:24;11.80;95.90
38480;DHT22;62333;51.980;5.934;2022-12-29T00:44:10;11.80;95.80
38480;DHT22;62333;51.980;5.934;2022-12-29T00:46:38;11.80;95.80
38480;DHT22;62333;51.980;5.934;2022-12-29T00:49:06;11.90;95.90
38480;DHT22;62333;51.980;5.934;2022-12-29T00:51:51;11.90;95.80
38480;DHT22;62333;51.980;5.934;2022-12-29T00:54:17;11.90;95.80
38480;DHT22;62333;51.980;5.934;2022-12-29T00:56:42;11.90;95.80
38480;DHT22;62333;51.980;5.934;2022-12-29T00:59:10;11.90;95.70
38480;DHT22;62333;51.980;5.934;2022-12-29T01:01:37;11.90;95.70
38480;DHT22;62333;51.980;5.934;2022-12-29T01:04:03;12.00;95.70
38480;DHT22;62333;51.980;5.934;2022-12-29T01:06:29;12.00;95.60
38480;DHT22;62333;51.980;5.934;2022-12-29T01:08:55;12.00;95.60
38480;DHT22;62333;51.980;5.934;2022-12-29T01:11:40;12.00;95.60
38480;DHT22;62333;51.980;5.934;2022-12-29T01:14:06;12.10;95.50
38480;DHT22;62333;51.980;5.934;2022-12-29T01:16:32;12.00;95.40
38480;DHT22;62333;51.980;5.934;2022-12-29T01:18:58;12.10;95.30
38480;DHT22;62333;51.980;5.934;2022-12-29T01:21:24;12.00;95.30
38480;DHT22;62333;51.980;5.934;2022-12-29T01:23:50;12.10;95.20
38480;DHT22;62333;51.980;5.934;2022-12-29T01:26:17;12.10;95.20
38480;DHT22;62333;51.980;5.934;2022-12-29T01:28:43;12.10;95.20
38480;DHT22;62333;51.980;5.934;2022-12-29T01:31:10;12.10;95.20
38480;DHT22;62333;51.980;5.934;2022-12-29T01:33:37;12.00;95.20
38480;DHT22;62333;51.980;5.934;2022-12-29T01:36:04;12.00;95.30
38480;DHT22;62333;51.980;5.934;2022-12-29T01:38:32;12.00;95.30
38480;DHT22;62333;51.980;5.934;2022-12-29T01:40:58;12.00;95.30
38480;DHT22;62333;51.980;5.934;2022-12-29T01:43:46;12.00;95.30
38480;DHT22;62333;51.980;5.934;2022-12-29T01:49:15;12.00;95.30
38480;DHT22;62333;51.980;5.934;2022-12-29T01:51:55;11.90;95.40
38480;DHT22;62333;51.980;5.934;2022-12-29T01:54:37;11.90;95.50
38480;DHT22;62333;51.980;5.934;2022-12-29T01:57:11;11.90;95.60
38480;DHT22;62333;51.980;5.934;2022-12-29T01:59:45;11.80;95.70
38480;DHT22;62333;51.980;5.934;2022-12-29T02:02:13;11.90;95.80
38480;DHT22;62333;51.980;5.934;2022-12-29T02:04:41;11.90;95.80
38480;DHT22;62333;51.980;5.934;2022-12-29T02:07:13;11.90;95.70
38480;DHT22;62333;51.980;5.934;2022-12-29T02:09:40;11.90;95.70
38480;DHT22;62333;51.980;5.934;2022-12-29T02:12:06;11.90;95.70
38480;DHT22;62333;51.980;5.934;2022-12-29T02:14:32;11.90;95.70
38480;DHT22;62333;51.980;5.934;2022-12-29T02:50:36;12.10;95.10
38480;DHT22;62333;51.980;5.934;2022-12-29T02:53:15;12.10;94.90
38480;DHT22;62333;51.980;5.934;2022-12-29T02:55:48;12.20;94.80
38480;DHT22;62333;51.980;5.934;2022-12-29T02:58:20;12.20;94.30
38480;DHT22;62333;51.980;5.934;2022-12-29T03:06:12;12.30;94.20
38480;DHT22;62333;51.980;5.934;2022-12-29T03:09:05;12.30;93.60
38480;DHT22;62333;51.980;5.934;2022-12-29T03:17:54;12.30;92.80
38480;DHT22;62333;51.980;5.934;2022-12-29T03:20:31;12.40;92.80
38480;DHT22;62333;51.980;5.934;2022-12-29T03:23:00;12.40;92.80
38480;DHT22;62333;51.980;5.934;2022-12-29T03:25:42;12.40;92.70
38480;DHT22;62333;51.980;5.934;2022-12-29T03:28:13;12.40;92.50
38480;DHT22;62333;51.980;5.934;2022-12-29T03:30:43;12.40;92.60
38480;DHT22;62333;51.980;5.934;2022-12-29T03:33:14;12.50;92.70
38480;DHT22;62333;51.980;5.934;2022-12-29T03:35:43;12.50;92.60
38480;DHT22;62333;51.980;5.934;2022-12-29T03:38:30;12.60;92.60
38480;DHT22;62333;51.980;5.934;2022-12-29T03:41:00;12.60;92.50
38480;DHT22;62333;51.980;5.934;2022-12-29T03:43:29;12.60;92.60
38480;DHT22;62333;51.980;5.934;2022-12-29T03:45:55;12.60;92.60
38480;DHT22;62333;51.980;5.934;2022-12-29T03:48:21;12.60;92.40
38480;DHT22;62333;51.980;5.934;2022-12-29T03:50:46;12.60;92.50
38480;DHT22;62333;51.980;5.934;2022-12-29T03:53:12;12.60;92.30
38480;DHT22;62333;51.980;5.934;2022-12-29T03:55:38;12.60;92.40
38480;DHT22;62333;51.980;5.934;2022-12-29T03:58:03;12.60;92.30
38480;DHT22;62333;51.980;5.934;2022-12-29T04:00:29;12.60;92.30
38480;DHT22;62333;51.980;5.934;2022-12-29T04:02:55;12.50;92.30
38480;DHT22;62333;51.980;5.934;2022-12-29T04:05:21;12.50;92.30
38480;DHT22;62333;51.980;5.934;2022-12-29T04:07:47;12.60;92.30
38480;DHT22;62333;51.980;5.934;2022-12-29T04:10:12;12.50;92.30
38480;DHT22;62333;51.980;5.934;2022-12-29T04:12:38;12.60;92.30
38480;DHT22;62333;51.980;5.934;2022-12-29T04:15:04;12.60;91.90
38480;DHT22;62333;51.980;5.934;2022-12-29T04:17:30;12.50;91.90
38480;DHT22;62333;51.980;5.934;2022-12-29T04:19:55;12.50;91.90
38480;DHT22;62333;51.980;5.934;2022-12-29T04:22:41;12.50;92.00
38480;DHT22;62333;51.980;5.934;2022-12-29T04:25:07;12.50;92.00
38480;DHT22;62333;51.980;5.934;2022-12-29T04:27:33;12.50;92.00
38480;DHT22;62333;51.980;5.934;2022-12-29T04:29:58;12.50;92.10
38480;DHT22;62333;51.980;5.934;2022-12-29T04:32:24;12.50;92.00
38480;DHT22;62333;51.980;5.934;2022-12-29T04:34:49;12.50;92.00
38480;DHT22;62333;51.980;5.934;2022-12-29T04:37:15;12.50;92.00
38480;DHT22;62333;51.980;5.934;2022-12-29T04:39:41;12.50;92.20
38480;DHT22;62333;51.980;5.934;2022-12-29T04:42:06;12.40;92.40
38480;DHT22;62333;51.980;5.934;2022-12-29T04:44:32;12.30;92.70
38480;DHT22;62333;51.980;5.934;2022-12-29T04:46:58;12.30;92.80
38480;DHT22;62333;51.980;5.934;2022-12-29T04:49:23;12.30;93.10
38480;DHT22;62333;51.980;5.934;2022-12-29T04:51:49;12.20;93.20
38480;DHT22;62333;51.980;5.934;2022-12-29T04:54:14;12.20;93.20
38480;DHT22;62333;51.980;5.934;2022-12-29T04:56:40;12.10;93.30
38480;DHT22;62333;51.980;5.934;2022-12-29T04:59:06;12.10;93.30
38480;DHT22;62333;51.980;5.934;2022-12-29T05:01:31;12.10;93.20
38480;DHT22;62333;51.980;5.934;2022-12-29T05:03:57;12.10;93.00
38480;DHT22;62333;51.980;5.934;2022-12-29T05:06:22;12.10;92.70
38480;DHT22;62333;51.980;5.934;2022-12-29T05:08:48;12.10;92.30
38480;DHT22;62333;51.980;5.934;2022-12-29T05:11:14;12.00;92.30
38480;DHT22;62333;51.980;5.934;2022-12-29T05:13:39;12.00;92.50
38480;DHT22;62333;51.980;5.934;2022-12-29T05:16:05;11.90;92.80
38480;DHT22;62333;51.980;5.934;2022-12-29T05:18:31;12.00;92.60
38480;DHT22;62333;51.980;5.934;2022-12-29T05:20:56;12.00;92.50
38480;DHT22;62333;51.980;5.934;2022-12-29T05:23:22;11.90;92.50
38480;DHT22;62333;51.980;5.934;2022-12-29T05:25:48;11.90;92.50
38480;DHT22;62333;51.980;5.934;2022-12-29T05:28:13;11.90;92.60
38480;DHT22;62333;51.980;5.934;2022-12-29T05:30:39;11.90;92.80
38480;DHT22;62333;51.980;5.934;2022-12-29T05:33:05;11.90;92.90
38480;DHT22;62333;51.980;5.934;2022-12-29T05:35:32;11.90;93.00
38480;DHT22;62333;51.980;5.934;2022-12-29T05:37:58;11.90;93.10
38480;DHT22;62333;51.980;5.934;2022-12-29T05:40:23;11.80;93.20
38480;DHT22;62333;51.980;5.934;2022-12-29T05:42:49;11.80;93.40
38480;DHT22;62333;51.980;5.934;2022-12-29T05:45:15;11.70;93.50
38480;DHT22;62333;51.980;5.934;2022-12-29T05:47:40;11.70;93.50
38480;DHT22;62333;51.980;5.934;2022-12-29T05:50:06;11.70;93.50
38480;DHT22;62333;51.980;5.934;2022-12-29T05:52:32;11.70;93.50
38480;DHT22;62333;51.980;5.934;2022-12-29T05:54:58;11.70;93.40
38480;DHT22;62333;51.980;5.934;2022-12-29T05:57:23;11.60;93.40
38480;DHT22;62333;51.980;5.934;2022-12-29T05:59:49;11.60;93.20
38480;DHT22;62333;51.980;5.934;2022-12-29T06:02:14;11.50;93.20
38480;DHT22;62333;51.980;5.934;2022-12-29T06:04:40;11.50;93.20
38480;DHT22;62333;51.980;5.934;2022-12-29T06:07:06;11.40;93.20
38480;DHT22;62333;51.980;5.934;2022-12-29T06:09:31;11.40;93.20
38480;DHT22;62333;51.980;5.934;2022-12-29T06:11:57;11.40;93.40
38480;DHT22;62333;51.980;5.934;2022-12-29T06:14:22;11.40;93.10
38480;DHT22;62333;51.980;5.934;2022-12-29T06:16:48;11.40;92.90
38480;DHT22;62333;51.980;5.934;2022-12-29T06:19:14;11.40;92.70
38480;DHT22;62333;51.980;5.934;2022-12-29T06:21:39;11.40;92.80
38480;DHT22;62333;51.980;5.934;2022-12-29T06:24:05;11.40;92.40
38480;DHT22;62333;51.980;5.934;2022-12-29T06:26:31;11.40;92.30
38480;DHT22;62333;51.980;5.934;2022-12-29T06:28:57;11.40;92.30
38480;DHT22;62333;51.980;5.934;2022-12-29T06:31:22;11.40;92.10
38480;DHT22;62333;51.980;5.934;2022-12-29T06:33:48;11.30;91.90
38480;DHT22;62333;51.980;5.934;2022-12-29T06:36:13;11.30;91.60
38480;DHT22;62333;51.980;5.934;2022-12-29T06:38:39;11.30;91.60
38480;DHT22;62333;51.980;5.934;2022-12-29T06:41:05;11.30;91.50
38480;DHT22;62333;51.980;5.934;2022-12-29T06:43:30;11.30;91.40
38480;DHT22;62333;51.980;5.934;2022-12-29T06:45:57;11.30;91.30
38480;DHT22;62333;51.980;5.934;2022-12-29T06:48:23;11.30;91.20
38480;DHT22;62333;51.980;5.934;2022-12-29T06:50:49;11.30;91.20
38480;DHT22;62333;51.980;5.934;2022-12-29T06:53:14;11.30;91.10
38480;DHT22;62333;51.980;5.934;2022-12-29T06:55:42;11.30;90.90
38480;DHT22;62333;51.980;5.934;2022-12-29T06:58:08;11.30;90.80
38480;DHT22;62333;51.980;5.934;2022-12-29T07:00:33;11.30;90.90
38480;DHT22;62333;51.980;5.934;2022-12-29T07:02:59;11.30;90.70
38480;DHT22;62333;51.980;5.934;2022-12-29T07:05:26;11.30;90.50
38480;DHT22;62333;51.980;5.934;2022-12-29T07:07:54;11.30;90.50
38480;DHT22;62333;51.980;5.934;2022-12-29T07:10:20;11.40;90.30
38480;DHT22;62333;51.980;5.934;2022-12-29T07:12:45;11.40;90.40
38480;DHT22;62333;51.980;5.934;2022-12-29T07:15:11;11.50;90.10
38480;DHT22;62333;51.980;5.934;2022-12-29T07:17:37;11.50;90.00
38480;DHT22;62333;51.980;5.934;2022-12-29T07:20:03;11.50;90.10
38480;DHT22;62333;51.980;5.934;2022-12-29T07:22:29;11.50;89.60
38480;DHT22;62333;51.980;5.934;2022-12-29T07:24:54;11.50;89.60
38480;DHT22;62333;51.980;5.934;2022-12-29T07:27:20;11.50;89.40
38480;DHT22;62333;51.980;5.934;2022-12-29T07:29:45;11.50;89.20
38480;DHT22;62333;51.980;5.934;2022-12-29T07:32:11;11.50;89.30
38480;DHT22;62333;51.980;5.934;2022-12-29T07:34:37;11.50;89.40
38480;DHT22;62333;51.980;5.934;2022-12-29T07:37:05;11.50;89.10
38480;DHT22;62333;51.980;5.934;2022-12-29T07:39:30;11.60;89.20
38480;DHT22;62333;51.980;5.934;2022-12-29T07:41:56;11.60;89.10
38480;DHT22;62333;51.980;5.934;2022-12-29T07:44:22;11.60;89.00
38480;DHT22;62333;51.980;5.934;2022-12-29T07:46:47;11.60;89.00
38480;DHT22;62333;51.980;5.934;2022-12-29T07:49:13;11.60;88.90
38480;DHT22;62333;51.980;5.934;2022-12-29T07:51:38;11.60;88.20
38480;DHT22;62333;51.980;5.934;2022-12-29T07:54:04;11.60;88.40
38480;DHT22;62333;51.980;5.934;2022-12-29T07:56:30;11.60;88.40
38480;DHT22;62333;51.980;5.934;2022-12-29T07:58:55;11.50;88.40
38480;DHT22;62333;51.980;5.934;2022-12-29T08:01:21;11.60;88.40
38480;DHT22;62333;51.980;5.934;2022-12-29T08:03:48;11.60;87.90
38480;DHT22;62333;51.980;5.934;2022-12-29T08:06:14;11.60;87.50
38480;DHT22;62333;51.980;5.934;2022-12-29T08:08:40;11.60;87.70
38480;DHT22;62333;51.980;5.934;2022-12-29T08:11:05;11.70;87.70
38480;DHT22;62333;51.980;5.934;2022-12-29T08:13:31;11.70;87.10
38480;DHT22;62333;51.980;5.934;2022-12-29T08:16:00;11.70;86.90
38480;DHT22;62333;51.980;5.934;2022-12-29T08:18:25;11.70;87.00
38480;DHT22;62333;51.980;5.934;2022-12-29T08:20:51;11.60;86.70
38480;DHT22;62333;51.980;5.934;2022-12-29T08:23:17;11.70;86.70
38480;DHT22;62333;51.980;5.934;2022-12-29T08:25:42;11.70;86.50
38480;DHT22;62333;51.980;5.934;2022-12-29T08:28:08;11.70;86.30
38480;DHT22;62333;51.980;5.934;2022-12-29T08:30:35;11.70;86.10
38480;DHT22;62333;51.980;5.934;2022-12-29T08:33:01;11.70;85.80
38480;DHT22;62333;51.980;5.934;2022-12-29T08:35:27;11.60;85.20
38480;DHT22;62333;51.980;5.934;2022-12-29T08:37:52;11.70;85.20
38480;DHT22;62333;51.980;5.934;2022-12-29T08:40:20;11.70;85.10
38480;DHT22;62333;51.980;5.934;2022-12-29T08:42:45;11.70;84.70
38480;DHT22;62333;51.980;5.934;2022-12-29T08:45:11;11.70;84.80
38480;DHT22;62333;51.980;5.934;2022-12-29T08:47:37;11.70;84.70
38480;DHT22;62333;51.980;5.934;2022-12-29T08:50:03;11.80;84.90
38480;DHT22;62333;51.980;5.934;2022-12-29T08:52:29;11.80;85.00
38480;DHT22;62333;51.980;5.934;2022-12-29T08:54:54;11.90;85.00
38480;DHT22;62333;51.980;5.934;2022-12-29T08:57:20;12.00;84.80
38480;DHT22;62333;51.980;5.934;2022-12-29T08:59:45;12.00;84.20
38480;DHT22;62333;51.980;5.934;2022-12-29T09:02:11;12.00;84.20
38480;DHT22;62333;51.980;5.934;2022-12-29T09:04:37;12.00;84.20
38480;DHT22;62333;51.980;5.934;2022-12-29T09:07:03;12.00;84.40
38480;DHT22;62333;51.980;5.934;2022-12-29T09:09:31;12.00;84.50
38480;DHT22;62333;51.980;5.934;2022-12-29T09:11:56;12.00;84.50
38480;DHT22;62333;51.980;5.934;2022-12-29T09:14:22;12.00;84.40
38480;DHT22;62333;51.980;5.934;2022-12-29T09:16:51;12.00;84.60
38480;DHT22;62333;51.980;5.934;2022-12-29T09:19:35;12.10;84.90
38480;DHT22;62333;51.980;5.934;2022-12-29T09:22:01;12.00;85.10
38480;DHT22;62333;51.980;5.934;2022-12-29T09:24:26;12.00;85.60
38480;DHT22;62333;51.980;5.934;2022-12-29T09:26:52;12.00;85.90
38480;DHT22;62333;51.980;5.934;2022-12-29T09:29:17;11.90;85.80
38480;DHT22;62333;51.980;5.934;2022-12-29T09:31:43;11.80;86.00
38480;DHT22;62333;51.980;5.934;2022-12-29T09:34:09;11.80;86.10
38480;DHT22;62333;51.980;5.934;2022-12-29T09:36:34;11.80;86.30
38480;DHT22;62333;51.980;5.934;2022-12-29T09:39:00;11.80;86.30
38480;DHT22;62333;51.980;5.934;2022-12-29T09:41:49;11.80;86.40
38480;DHT22;62333;51.980;5.934;2022-12-29T09:44:29;11.80;85.90
38480;DHT22;62333;51.980;5.934;2022-12-29T09:46:57;11.70;85.90
38480;DHT22;62333;51.980;5.934;2022-12-29T09:52:33;11.70;86.30
38480;DHT22;62333;51.980;5.934;2022-12-29T09:55:15;11.70;86.20
38480;DHT22;62333;51.980;5.934;2022-12-29T09:57:57;11.70;86.20
38480;DHT22;62333;51.980;5.934;2022-12-29T10:00:47;11.70;86.60
38480;DHT22;62333;51.980;5.934;2022-12-29T10:03:16;11.60;87.00
38480;DHT22;62333;51.980;5.934;2022-12-29T10:08:55;11.60;88.10
38480;DHT22;62333;51.980;5.934;2022-12-29T10:24:55;11.30;90.70
38480;DHT22;62333;51.980;5.934;2022-12-29T10:27:22;11.30;90.80
38480;DHT22;62333;51.980;5.934;2022-12-29T10:29:54;11.30;91.00
38480;DHT22;62333;51.980;5.934;2022-12-29T10:32:29;11.20;91.30
38480;DHT22;62333;51.980;5.934;2022-12-29T10:35:05;11.20;91.40
38480;DHT22;62333;51.980;5.934;2022-12-29T10:40:27;11.10;91.70
38480;DHT22;62333;51.980;5.934;2022-12-29T10:42:57;11.10;91.70
38480;DHT22;62333;51.980;5.934;2022-12-29T10:45:27;11.20;91.80
38480;DHT22;62333;51.980;5.934;2022-12-29T10:48:04;11.20;91.80
38480;DHT22;62333;51.980;5.934;2022-12-29T10:50:31;11.10;92.00
38480;DHT22;62333;51.980;5.934;2022-12-29T10:53:00;11.10;92.20
38480;DHT22;62333;51.980;5.934;2022-12-29T10:55:46;11.10;92.20
38480;DHT22;62333;51.980;5.934;2022-12-29T10:58:13;11.10;92.20
38480;DHT22;62333;51.980;5.934;2022-12-29T11:00:40;11.10;92.30
38480;DHT22;62333;51.980;5.934;2022-12-29T11:03:10;11.10;92.50
38480;DHT22;62333;51.980;5.934;2022-12-29T11:05:53;11.10;92.70
38480;DHT22;62333;51.980;5.934;2022-12-29T11:08:27;11.10;92.70
38480;DHT22;62333;51.980;5.934;2022-12-29T11:11:03;11.10;92.70
38480;DHT22;62333;51.980;5.934;2022-12-29T11:13:31;11.10;92.90
38480;DHT22;62333;51.980;5.934;2022-12-29T11:15:57;11.10;92.80
38480;DHT22;62333;51.980;5.934;2022-12-29T11:18:36;11.10;92.70
38480;DHT22;62333;51.980;5.934;2022-12-29T11:21:05;11.10;92.60
38480;DHT22;62333;51.980;5.934;2022-12-29T11:26:20;11.20;92.60
38480;DHT22;62333;51.980;5.934;2022-12-29T11:32:28;11.30;92.50
38480;DHT22;62333;51.980;5.934;2022-12-29T11:34:56;11.30;92.40
38480;DHT22;62333;51.980;5.934;2022-12-29T11:40:00;11.40;92.30
38480;DHT22;62333;51.980;5.934;2022-12-29T11:42:51;11.40;92.30
38480;DHT22;62333;51.980;5.934;2022-12-29T11:45:24;11.30;92.20
38480;DHT22;62333;51.980;5.934;2022-12-29T11:47:56;11.40;92.30
38480;DHT22;62333;51.980;5.934;2022-12-29T11:50:25;11.40;92.20
38480;DHT22;62333;51.980;5.934;2022-12-29T11:53:03;11.40;92.10
38480;DHT22;62333;51.980;5.934;2022-12-29T11:55:31;11.50;92.10
38480;DHT22;62333;51.980;5.934;2022-12-29T11:58:00;11.50;91.90
38480;DHT22;62333;51.980;5.934;2022-12-29T12:00:31;11.50;91.70
38480;DHT22;62333;51.980;5.934;2022-12-29T12:03:04;11.50;91.60
38480;DHT22;62333;51.980;5.934;2022-12-29T12:05:50;11.50;91.60
38480;DHT22;62333;51.980;5.934;2022-12-29T12:08:41;11.50;91.40
38480;DHT22;62333;51.980;5.934;2022-12-29T12:11:18;11.50;91.50
38480;DHT22;62333;51.980;5.934;2022-12-29T12:14:02;11.50;91.40
38480;DHT22;62333;51.980;5.934;2022-12-29T12:16:46;11.50;91.20
38480;DHT22;62333;51.980;5.934;2022-12-29T12:19:17;11.50;90.90
38480;DHT22;62333;51.980;5.934;2022-12-29T12:21:50;11.50;91.00
38480;DHT22;62333;51.980;5.934;2022-12-29T12:27:11;11.60;90.80
38480;DHT22;62333;51.980;5.934;2022-12-29T12:32:26;11.60;90.60
38480;DHT22;62333;51.980;5.934;2022-12-29T12:34:55;11.70;90.50
38480;DHT22;62333;51.980;5.934;2022-12-29T12:45:45;11.80;89.70
38480;DHT22;62333;51.980;5.934;2022-12-29T12:54:01;12.10;89.80
38480;DHT22;62333;51.980;5.934;2022-12-29T13:07:59;12.20;88.10
38480;DHT22;62333;51.980;5.934;2022-12-29T13:10:34;12.20;87.90
38480;DHT22;62333;51.980;5.934;2022-12-29T13:15:57;12.20;88.40
38480;DHT22;62333;51.980;5.934;2022-12-29T13:24:19;12.10;88.80
38480;DHT22;62333;51.980;5.934;2022-12-29T13:26:59;12.10;88.80
38480;DHT22;62333;51.980;5.934;2022-12-29T13:37:52;12.00;88.90
38480;DHT22;62333;51.980;5.934;2022-12-29T13:40:23;11.90;88.90
38480;DHT22;62333;51.980;5.934;2022-12-29T13:42:50;11.90;89.00
38480;DHT22;62333;51.980;5.934;2022-12-29T13:45:22;11.90;89.10
38480;DHT22;62333;51.980;5.934;2022-12-29T13:48:11;11.90;89.10
38480;DHT22;62333;51.980;5.934;2022-12-29T13:50:41;11.90;88.80
38480;DHT22;62333;51.980;5.934;2022-12-29T13:56:14;11.90;88.80
38480;DHT22;62333;51.980;5.934;2022-12-29T13:58:57;11.90;88.20
38480;DHT22;62333;51.980;5.934;2022-12-29T14:01:30;11.90;88.30
38480;DHT22;62333;51.980;5.934;2022-12-29T14:04:00;11.90;88.30
38480;DHT22;62333;51.980;5.934;2022-12-29T14:06:33;11.90;88.20
38480;DHT22;62333;51.980;5.934;2022-12-29T14:09:04;11.90;88.00
38480;DHT22;62333;51.980;5.934;2022-12-29T14:11:33;11.90;88.30
38480;DHT22;62333;51.980;5.934;2022-12-29T14:14:28;11.90;88.40
38480;DHT22;62333;51.980;5.934;2022-12-29T14:17:11;11.90;88.50
38480;DHT22;62333;51.980;5.934;2022-12-29T14:19:40;11.80;88.40
38480;DHT22;62333;51.980;5.934;2022-12-29T14:22:07;11.80;88.40
38480;DHT22;62333;51.980;5.934;2022-12-29T14:27:51;11.70;88.60
38480;DHT22;62333;51.980;5.934;2022-12-29T14:29:50;11.70;88.80
38480;DHT22;62333;51.980;5.934;2022-12-29T14:37:36;11.60;87.70
38480;DHT22;62333;51.980;5.934;2022-12-29T14:40:23;11.60;87.90
38480;DHT22;62333;51.980;5.934;2022-12-29T14:42:55;11.60;87.90
38480;DHT22;62333;51.980;5.934;2022-12-29T14:45:28;11.60;88.10
38480;DHT22;62333;51.980;5.934;2022-12-29T14:47:55;11.50;88.30
38480;DHT22;62333;51.980;5.934;2022-12-29T14:50:25;11.50;88.70
38480;DHT22;62333;51.980;5.934;2022-12-29T14:53:04;11.50;89.00
38480;DHT22;62333;51.980;5.934;2022-12-29T14:55:43;11.40;89.30
38480;DHT22;62333;51.980;5.934;2022-12-29T15:00:45;11.30;90.00
38480;DHT22;62333;51.980;5.934;2022-12-29T15:03:28;11.30;90.20
38480;DHT22;62333;51.980;5.934;2022-12-29T15:06:15;11.30;90.30
38480;DHT22;62333;51.980;5.934;2022-12-29T15:09:12;11.20;90.40
38480;DHT22;62333;51.980;5.934;2022-12-29T15:14:02;11.10;90.60
38480;DHT22;62333;51.980;5.934;2022-12-29T15:16:32;11.10;90.80
38480;DHT22;62333;51.980;5.934;2022-12-29T15:18:58;11.10;90.80
38480;DHT22;62333;51.980;5.934;2022-12-29T15:21:31;11.10;90.90
38480;DHT22;62333;51.980;5.934;2022-12-29T15:23:57;11.10;91.10
38480;DHT22;62333;51.980;5.934;2022-12-29T15:26:23;11.00;91.60
38480;DHT22;62333;51.980;5.934;2022-12-29T15:29:01;10.90;91.80
38480;DHT22;62333;51.980;5.934;2022-12-29T15:31:27;10.90;92.00
38480;DHT22;62333;51.980;5.934;2022-12-29T15:34:00;10.90;92.20
38480;DHT22;62333;51.980;5.934;2022-12-29T15:36:28;10.80;92.30
38480;DHT22;62333;51.980;5.934;2022-12-29T15:38:54;10.80;92.40
38480;DHT22;62333;51.980;5.934;2022-12-29T15:41:39;10.80;92.30
38480;DHT22;62333;51.980;5.934;2022-12-29T15:44:41;10.80;92.40
38480;DHT22;62333;51.980;5.934;2022-12-29T15:47:19;10.70;92.40
38480;DHT22;62333;51.980;5.934;2022-12-29T15:49:48;10.60;92.50
38480;DHT22;62333;51.980;5.934;2022-12-29T15:52:21;10.60;92.50
38480;DHT22;62333;51.980;5.934;2022-12-29T15:54:49;10.70;92.40
38480;DHT22;62333;51.980;5.934;2022-12-29T15:57:24;10.70;92.40
38480;DHT22;62333;51.980;5.934;2022-12-29T15:59:50;10.70;92.30
38480;DHT22;62333;51.980;5.934;2022-12-29T16:02:16;10.60;92.20
38480;DHT22;62333;51.980;5.934;2022-12-29T16:04:43;10.60;92.10
38480;DHT22;62333;51.980;5.934;2022-12-29T16:09:55;10.70;92.00
38480;DHT22;62333;51.980;5.934;2022-12-29T16:12:24;10.60;91.90
38480;DHT22;62333;51.980;5.934;2022-12-29T16:14:56;10.60;91.90
38480;DHT22;62333;51.980;5.934;2022-12-29T16:17:29;10.70;91.90
38480;DHT22;62333;51.980;5.934;2022-12-29T16:20:05;10.60;91.80
38480;DHT22;62333;51.980;5.934;2022-12-29T16:22:42;10.60;91.80
38480;DHT22;62333;51.980;5.934;2022-12-29T16:25:23;10.70;91.80
38480;DHT22;62333;51.980;5.934;2022-12-29T16:27:50;10.60;91.80
38480;DHT22;62333;51.980;5.934;2022-12-29T16:32:51;10.60;91.80
38480;DHT22;62333;51.980;5.934;2022-12-29T16:35:28;10.70;91.80
38480;DHT22;62333;51.980;5.934;2022-12-29T16:38:18;10.70;91.80
38480;DHT22;62333;51.980;5.934;2022-12-29T16:43:35;10.70;91.60
38480;DHT22;62333;51.980;5.934;2022-12-29T16:46:21;10.70;91.70
38480;DHT22;62333;51.980;5.934;2022-12-29T16:48:52;10.60;91.50
38480;DHT22;62333;51.980;5.934;2022-12-29T16:51:31;10.60;91.40
38480;DHT22;62333;51.980;5.934;2022-12-29T16:53:59;10.60;91.40
38480;DHT22;62333;51.980;5.934;2022-12-29T16:56:28;10.60;91.40
38480;DHT22;62333;51.980;5.934;2022-12-29T16:59:06;10.60;91.40
38480;DHT22;62333;51.980;5.934;2022-12-29T17:01:38;10.60;91.30
38480;DHT22;62333;51.980;5.934;2022-12-29T17:04:12;10.60;91.30
38480;DHT22;62333;51.980;5.934;2022-12-29T17:06:38;10.60;91.20
38480;DHT22;62333;51.980;5.934;2022-12-29T17:11:47;10.60;90.90
38480;DHT22;62333;51.980;5.934;2022-12-29T17:14:39;10.50;90.80
38480;DHT22;62333;51.980;5.934;2022-12-29T17:17:53;10.50;90.80
38480;DHT22;62333;51.980;5.934;2022-12-29T17:20:05;10.50;90.80
38480;DHT22;62333;51.980;5.934;2022-12-29T17:22:31;10.50;90.60
38480;DHT22;62333;51.980;5.934;2022-12-29T17:24:59;10.50;90.90
38480;DHT22;62333;51.980;5.934;2022-12-29T17:30:13;10.40;90.60
38480;DHT22;62333;51.980;5.934;2022-12-29T17:32:40;10.40;90.50
38480;DHT22;62333;51.980;5.934;2022-12-29T17:35:13;10.40;90.50
38480;DHT22;62333;51.980;5.934;2022-12-29T17:37:40;10.40;90.40
38480;DHT22;62333;51.980;5.934;2022-12-29T17:40:17;10.30;90.40
38480;DHT22;62333;51.980;5.934;2022-12-29T17:42:45;10.30;90.20
38480;DHT22;62333;51.980;5.934;2022-12-29T17:45:17;10.30;90.30
38480;DHT22;62333;51.980;5.934;2022-12-29T17:47:43;10.20;90.30
38480;DHT22;62333;51.980;5.934;2022-12-29T17:50:14;10.20;90.20
38480;DHT22;62333;51.980;5.934;2022-12-29T17:52:42;10.20;90.10
38480;DHT22;62333;51.980;5.934;2022-12-29T17:55:16;10.20;90.10
38480;DHT22;62333;51.980;5.934;2022-12-29T17:57:43;10.10;90.10
38480;DHT22;62333;51.980;5.934;2022-12-29T18:00:20;10.20;90.10
38480;DHT22;62333;51.980;5.934;2022-12-29T18:02:46;10.20;90.00
38480;DHT22;62333;51.980;5.934;2022-12-29T18:05:24;10.20;90.00
38480;DHT22;62333;51.980;5.934;2022-12-29T18:07:52;10.20;89.60
38480;DHT22;62333;51.980;5.934;2022-12-29T18:10:19;10.10;89.70
38480;DHT22;62333;51.980;5.934;2022-12-29T18:12:46;10.10;89.50
38480;DHT22;62333;51.980;5.934;2022-12-29T18:15:22;10.20;89.50
38480;DHT22;62333;51.980;5.934;2022-12-29T18:17:48;10.20;89.40
38480;DHT22;62333;51.980;5.934;2022-12-29T18:20:15;10.10;89.20
38480;DHT22;62333;51.980;5.934;2022-12-29T18:22:41;10.10;89.20
38480;DHT22;62333;51.980;5.934;2022-12-29T18:25:21;10.00;89.10
38480;DHT22;62333;51.980;5.934;2022-12-29T18:27:48;10.00;89.10